Moorpark, California
Current Conditions -  °F | °C
As of 5:55 AM on Friday 28 Nov 2014 (Local Time) from KCMA Reporting Station
Clear Clear  
Wind Chill: 50°   Ceiling: Unl
Heat Index: 50°   Visibility: 10mi
Dew Point: 30°   Wind: 5mph
Humidity: 46%   Direction: 40°NE
Pressure: 29.97"   Gusts: NA
Location:  34.29°N, 118.88°W
Report Text: KCMA 281355Z AUTO 04004KT 10SM CLR 10/M01 A2997 RMK AO2 SLP156 T01001011
Loading
Personal Weather Stations






























Interactive Weather Map New forecast layout! Learn more

10-Day Weather Forecast

Advertisements
Track Severe Weather on mobile